createdAt,value
2019-01-15T00:04:13.754Z,99440.02
2019-01-15T00:09:19.898Z,99434.88
2019-01-15T00:14:26.043Z,99437.44
2019-01-15T00:19:33.279Z,99447.82
2019-01-15T00:24:39.489Z,99446.13
2019-01-15T00:29:45.629Z,99462.27
2019-01-15T00:34:51.711Z,99470.42
2019-01-15T00:39:57.636Z,99466.87
2019-01-15T00:45:04.698Z,99456.94
2019-01-15T00:50:13.442Z,99476.84
2019-01-15T00:55:19.383Z,99467.16
2019-01-15T01:00:25.363Z,99468.23
2019-01-15T01:05:31.560Z,99476.20
2019-01-15T01:10:37.715Z,99484.11
2019-01-15T01:15:43.831Z,99476.92
2019-01-15T01:20:49.870Z,99478.28
2019-01-15T01:25:55.694Z,99474.12
2019-01-15T01:31:01.658Z,99491.33
2019-01-15T01:36:07.672Z,99484.45
2019-01-15T01:41:13.536Z,99486.52
2019-01-15T01:46:19.505Z,99492.93
2019-01-15T01:51:25.850Z,99490.22
2019-01-15T01:56:31.878Z,99493.77
2019-01-15T02:01:37.750Z,99497.84
2019-01-15T02:06:43.973Z,99500.52
2019-01-15T02:11:49.903Z,99519.19
2019-01-15T02:16:56.688Z,99523.58
2019-01-15T02:22:02.667Z,99532.27
2019-01-15T02:27:10.238Z,99522.52
2019-01-15T02:32:16.147Z,99546.37
2019-01-15T02:37:22.349Z,99535.24
2019-01-15T02:42:28.635Z,99530.23
2019-01-15T02:47:34.704Z,99542.95
2019-01-15T02:52:40.585Z,99542.77
2019-01-15T02:57:46.934Z,99543.66
2019-01-15T03:02:53.025Z,99549.24
2019-01-15T03:07:58.982Z,99544.36
2019-01-15T03:13:05.704Z,99555.00
2019-01-15T03:18:11.670Z,99556.95
2019-01-15T03:23:17.619Z,99559.20
2019-01-15T03:28:23.926Z,99556.25
2019-01-15T03:33:30.216Z,99562.85
2019-01-15T03:38:36.486Z,99572.51
2019-01-15T03:43:42.534Z,99573.92
2019-01-15T03:48:48.826Z,99573.70
2019-01-15T03:53:55.020Z,99576.62
2019-01-15T03:59:01.058Z,99580.17
2019-01-15T04:04:08.194Z,99576.94
2019-01-15T04:09:14.599Z,99593.64
2019-01-15T04:14:20.857Z,99598.90
2019-01-15T04:19:26.919Z,99601.47
2019-01-15T04:24:33.324Z,99602.01
2019-01-15T04:29:40.067Z,99619.90
2019-01-15T04:34:46.056Z,99620.16
2019-01-15T04:39:52.254Z,99629.70
2019-01-15T04:44:58.415Z,99631.67
2019-01-15T04:50:06.293Z,99621.98
2019-01-15T04:55:12.816Z,99633.84
2019-01-15T05:00:21.446Z,99627.18
2019-01-15T05:05:27.426Z,99610.08
2019-01-15T05:10:33.392Z,99623.88
2019-01-15T05:15:39.374Z,99629.11
2019-01-15T05:20:45.152Z,99612.45
2019-01-15T05:25:51.119Z,99641.36
2019-01-15T05:30:56.921Z,99639.98
2019-01-15T05:36:02.623Z,99643.00
2019-01-15T05:41:08.623Z,99649.72
2019-01-15T05:46:14.835Z,99649.42
2019-01-15T05:51:32.152Z,99648.38
2019-01-15T05:56:38.523Z,99656.48
2019-01-15T06:01:44.826Z,99671.12
2019-01-15T06:06:50.760Z,99671.06
2019-01-15T06:11:56.565Z,99682.93
2019-01-15T06:17:02.653Z,99683.97
2019-01-15T06:22:08.897Z,99674.93
2019-01-15T06:27:14.658Z,99683.48
2019-01-15T06:32:20.550Z,99690.09
2019-01-15T06:37:26.420Z,99684.70
2019-01-15T06:42:32.722Z,99697.45
2019-01-15T06:47:39.004Z,99688.11
2019-01-15T06:52:45.252Z,99701.37
2019-01-15T06:57:51.666Z,99706.80
2019-01-15T07:02:58.090Z,99708.49
2019-01-15T07:08:04.408Z,99715.55
2019-01-15T07:13:10.789Z,99724.16
2019-01-15T07:18:17.788Z,99729.00
2019-01-15T07:23:23.747Z,99739.48
2019-01-15T07:28:29.731Z,99736.02
2019-01-15T07:33:35.508Z,99739.08
2019-01-15T07:38:41.652Z,99736.16
2019-01-15T07:43:47.639Z,99753.81
2019-01-15T07:48:53.614Z,99753.13
2019-01-15T07:53:59.897Z,99747.99
2019-01-15T07:59:05.679Z,99757.67
2019-01-15T08:04:11.978Z,99749.72
2019-01-15T08:09:18.465Z,99763.66
2019-01-15T08:14:24.613Z,99763.67
2019-01-15T08:19:30.596Z,99759.27
2019-01-15T08:24:36.666Z,99760.60
2019-01-15T08:29:42.712Z,99763.61
2019-01-15T08:34:48.858Z,99765.63
2019-01-15T08:39:54.858Z,99776.91
2019-01-15T08:45:00.752Z,99788.48
2019-01-15T08:50:10.203Z,99799.39
2019-01-15T08:55:16.186Z,99808.39
2019-01-15T09:00:22.261Z,99808.23
2019-01-15T09:05:28.038Z,99805.84
2019-01-15T09:10:33.896Z,99809.70
2019-01-15T09:15:39.993Z,99817.31
2019-01-15T09:20:46.050Z,99808.48
2019-01-15T09:25:52.130Z,99814.02
2019-01-15T09:30:58.119Z,99821.04
2019-01-15T09:36:04.167Z,99829.70
2019-01-15T09:41:10.255Z,99823.09
2019-01-15T09:46:16.120Z,99814.70
2019-01-15T09:51:22.300Z,99809.45
2019-01-15T09:56:28.302Z,99820.26
2019-01-15T10:01:34.150Z,99823.81
2019-01-15T10:06:40.265Z,99828.43
2019-01-15T10:11:46.522Z,99815.66
2019-01-15T10:16:52.674Z,99814.92
2019-01-15T10:21:59.190Z,99805.87
2019-01-15T10:27:06.694Z,99808.66
2019-01-15T10:32:32.727Z,99802.84
2019-01-15T10:37:39.636Z,99802.77
2019-01-15T10:42:45.751Z,99805.48
2019-01-15T10:47:53.226Z,99800.11
2019-01-15T10:52:59.486Z,99814.35
2019-01-15T10:58:05.929Z,99813.73
2019-01-15T11:03:12.218Z,99820.31
2019-01-15T11:08:18.001Z,99820.25
2019-01-15T11:13:24.260Z,99829.61
2019-01-15T11:18:30.465Z,99826.64
2019-01-15T11:23:36.231Z,99827.94
2019-01-15T11:28:42.389Z,99844.88
2019-01-15T11:34:07.837Z,99840.78
2019-01-15T11:39:13.842Z,99843.31
2019-01-15T11:44:20.248Z,99834.73
2019-01-15T11:49:26.572Z,99834.15
2019-01-15T11:54:32.958Z,99844.68
2019-01-15T11:59:39.086Z,99835.39
2019-01-15T12:04:49.968Z,99844.68
2019-01-15T12:10:03.523Z,99853.48
2019-01-15T12:15:20.049Z,99847.61
2019-01-15T12:20:30.268Z,99850.19
2019-01-15T12:25:38.204Z,99838.94
2019-01-15T12:30:45.839Z,99859.57
2019-01-15T12:36:02.517Z,99849.00
2019-01-15T12:41:13.233Z,99848.55
2019-01-15T12:46:37.527Z,99849.19
2019-01-15T12:52:01.636Z,99847.97
2019-01-15T12:57:09.406Z,99840.37
2019-01-15T13:02:29.800Z,99843.86
2019-01-15T13:07:37.459Z,99837.77
2019-01-15T13:12:45.300Z,99835.09
2019-01-15T13:18:08.668Z,99836.76
2019-01-15T13:23:16.458Z,99833.25
2019-01-15T13:28:27.172Z,99833.59
2019-01-15T13:33:41.117Z,99834.86
2019-01-15T13:39:00.387Z,99838.80
2019-01-15T13:44:13.793Z,99839.66
2019-01-15T13:49:21.576Z,99859.23
2019-01-15T13:54:27.649Z,99855.63
2019-01-15T13:59:38.127Z,99864.20
2019-01-15T14:04:48.679Z,99860.66
2019-01-15T14:10:13.114Z,99865.05
2019-01-15T14:15:36.583Z,99861.89
2019-01-15T14:20:44.207Z,99856.16
2019-01-15T14:26:09.581Z,99843.67
2019-01-15T14:31:32.506Z,99849.09
2019-01-15T14:36:43.886Z,99843.80
2019-01-15T14:41:57.309Z,99830.29
2019-01-15T14:47:09.991Z,99820.03
2019-01-15T14:52:20.756Z,99817.41
2019-01-15T14:57:43.320Z,99815.81
2019-01-15T15:02:56.872Z,99803.37
2019-01-15T15:08:20.316Z,99784.45
2019-01-15T15:13:30.838Z,99776.02
2019-01-15T15:18:38.327Z,99779.12
2019-01-15T15:23:52.234Z,99762.82
2019-01-15T15:29:02.828Z,99766.06
2019-01-15T15:34:10.592Z,99773.08
2019-01-15T15:39:18.325Z,99773.44
2019-01-15T15:44:41.865Z,99785.52
2019-01-15T15:49:49.561Z,99802.14
2019-01-15T15:55:06.020Z,99781.86
2019-01-15T16:00:22.973Z,99776.47
2019-01-15T16:05:46.743Z,99777.05
2019-01-15T16:11:00.417Z,99771.64
2019-01-15T16:16:23.901Z,99750.05
2019-01-15T16:21:47.693Z,99743.63
2019-01-15T16:27:10.749Z,99725.39
2019-01-15T16:32:24.369Z,99699.83
2019-01-15T16:37:38.292Z,99676.27
2019-01-15T16:42:52.119Z,99658.00
2019-01-15T16:47:59.852Z,99644.98
2019-01-15T16:53:23.665Z,99640.46
2019-01-15T16:58:47.577Z,99614.86
2019-01-15T17:03:58.412Z,99611.03
2019-01-15T17:09:08.475Z,99612.50
2019-01-15T17:14:22.224Z,99584.71
2019-01-15T17:19:41.717Z,99591.96
2019-01-15T17:24:49.762Z,99574.37
2019-01-15T17:30:09.758Z,99564.63
2019-01-15T17:35:20.021Z,99537.06
2019-01-15T17:40:45.542Z,99520.16
2019-01-15T17:45:53.158Z,99493.36
2019-01-15T17:51:16.755Z,99474.95
2019-01-15T17:56:27.220Z,99459.86
2019-01-15T18:01:52.959Z,99443.33
2019-01-15T18:07:00.454Z,99427.83
2019-01-15T18:12:06.543Z,99410.86
2019-01-15T18:17:14.606Z,99397.34
2019-01-15T18:22:22.662Z,99372.05
2019-01-15T18:27:42.795Z,99352.11
2019-01-15T18:32:56.553Z,99347.61
2019-01-15T18:38:04.364Z,99337.72
2019-01-15T18:43:13.220Z,99328.14
2019-01-15T18:48:29.994Z,99324.54
2019-01-15T18:53:40.351Z,99317.55
2019-01-15T18:59:06.752Z,99292.27
2019-01-15T19:04:31.888Z,99277.92
2019-01-15T19:09:58.441Z,99265.31
2019-01-15T19:15:09.178Z,99254.66
2019-01-15T19:20:22.466Z,99240.07
2019-01-15T19:25:33.172Z,99218.84
2019-01-15T19:30:40.769Z,99224.72
2019-01-15T19:36:04.573Z,99208.71
2019-01-15T19:41:43.403Z,99191.95
2019-01-15T19:47:10.692Z,99189.02
2019-01-15T19:52:19.659Z,99191.22
2019-01-15T19:57:36.625Z,99182.41
2019-01-15T20:02:44.378Z,99164.52
2019-01-15T20:07:54.855Z,99170.08
2019-01-15T20:13:02.775Z,99165.75
2019-01-15T20:18:10.570Z,99145.58
2019-01-15T20:23:20.937Z,99156.20
2019-01-15T20:28:28.451Z,99151.78
2019-01-15T20:33:51.251Z,99155.34
2019-01-15T20:38:58.922Z,99151.83
2019-01-15T20:44:16.730Z,99171.86
2019-01-15T20:49:40.981Z,99170.55
2019-01-15T20:54:56.168Z,99186.81
2019-01-15T21:00:18.645Z,99171.17
2019-01-15T21:05:31.597Z,99172.52
2019-01-15T21:10:45.251Z,99207.34
2019-01-15T21:16:11.180Z,99224.52
2019-01-15T21:21:18.539Z,99248.16
2019-01-15T21:26:42.693Z,99283.90
2019-01-15T21:31:56.209Z,99277.44
2019-01-15T21:37:20.236Z,99303.09
2019-01-15T21:42:43.917Z,99311.07
2019-01-15T21:47:51.496Z,99318.90
2019-01-15T21:53:14.107Z,99333.60
2019-01-15T21:58:39.627Z,99329.02
2019-01-15T22:03:49.711Z,99364.89
2019-01-15T22:09:13.305Z,99375.52
2019-01-15T22:14:37.352Z,99386.63
2019-01-15T22:19:54.283Z,99391.61
2019-01-15T22:25:05.981Z,99416.37
2019-01-15T22:30:16.580Z,99433.83
2019-01-15T22:35:33.333Z,99461.27
2019-01-15T22:40:41.249Z,99464.80
2019-01-15T22:46:05.547Z,99509.72
2019-01-15T22:51:19.634Z,99498.00
2019-01-15T22:56:36.108Z,99520.79
2019-01-15T23:01:43.813Z,99544.14
2019-01-15T23:06:55.068Z,99559.20
2019-01-15T23:12:03.232Z,99563.64
2019-01-15T23:17:16.890Z,99594.95
2019-01-15T23:22:41.123Z,99604.08
2019-01-15T23:27:52.050Z,99614.33
2019-01-15T23:33:18.380Z,99625.30
2019-01-15T23:38:42.481Z,99636.73
2019-01-15T23:44:02.109Z,99654.30
2019-01-15T23:49:26.239Z,99661.14
2019-01-15T23:54:50.455Z,99670.59
